EGCC/MAN METAR and TAF weather

Enter ICAO airport designator
Station Type Date Time Source
EGCC METAR 2021/05/12 01:20 UTC NOAA

EGCC 120120Z AUTO VRB01KT 2000 BR BKN041 05/05 Q1005


Station Type Date Time Source
EGCC Decoded METAR 2021/05/12 01:20 UTC NOAA

Manchester Airport, United Kingdom (EGCC) 53-21N 002-17W 0M
May 11, 2021 - 09:20 PM EDT / 2021.05.12 0120 UTC
Wind: Variable at 1 MPH (1 KT):0
Visibility: 1 mile(s):0
Sky conditions: mostly cloudy
Weather: mist
Temperature: 41 F (5 C)
Dew Point: 41 F (5 C)
Relative Humidity: 100%
Pressure (altimeter): 29.68 in. Hg (1005 hPa)
ob: EGCC 120120Z AUTO VRB01KT 2000 BR BKN041 05/05 Q1005
cycle: 1

Station Type Date Time Source
EGCC TAF 2021/05/12 01:35 UTC NOAA

TAF
AMD EGCC 120128Z 1201/1306 VRB04KT 2000 BR SCT030
TEMPO 1201/1206 0300 FG BKN001
BECMG 1203/1206 21010KT
BECMG 1206/1209 9999 NSW
TEMPO 1210/1220 7000 SHRA
BECMG 1211/1214 27005KT PROB30
TEMPO 1212/1218 4000 +SHRA BKN014 BKN025CB

Example: see airport list